Time;durP1;ratioP1;P1;durP2;ratioP2;P2;SDS_P1;SDS_P2;PMS_P1;PMS_P2;Temp;Humidity;BMP_temperature;BMP_pressure;BME280_temperature;BME280_humidity;BME280_pressure;Samples;Min_cycle;Max_cycle;Signal;HPM_P1;HPM_P2
2022/06/02 00:00:15;;;;;;;4.68;3.00;;;15.00;99.90;;;;;;5189099;28;20429;-76
2022/06/02 00:03:14;;;;;;;2.60;2.40;;;15.00;99.90;;;;;;5190532;28;20048;-76
2022/06/02 00:06:08;;;;;;;5.70;2.63;;;15.00;99.90;;;;;;5166525;28;20052;-76
2022/06/02 00:08:49;;;;;;;3.05;2.75;;;15.00;99.90;;;;;;5191107;28;20053;-76
2022/06/02 00:11:36;;;;;;;3.38;2.80;;;15.00;99.90;;;;;;5156344;28;20053;-76
2022/06/02 00:14:38;;;;;;;3.03;2.45;;;15.00;99.90;;;;;;5173635;28;20409;-76
2022/06/02 00:17:43;;;;;;;3.40;2.55;;;15.00;99.90;;;;;;5185977;28;20045;-76
2022/06/02 00:20:28;;;;;;;4.35;3.03;;;15.00;99.90;;;;;;5184756;28;20056;-76
2022/06/02 00:23:31;;;;;;;7.10;2.75;;;15.00;99.90;;;;;;5193103;28;20060;-76
2022/06/02 00:26:12;;;;;;;4.82;2.35;;;15.00;99.90;;;;;;5186695;28;20056;-75
2022/06/02 00:28:56;;;;;;;5.13;2.60;;;15.00;99.90;;;;;;5188751;28;20057;-74
2022/06/02 00:31:41;;;;;;;3.00;2.70;;;15.00;99.90;;;;;;5187678;28;20050;-76
2022/06/02 00:34:24;;;;;;;3.65;2.40;;;14.90;99.90;;;;;;5170141;28;20045;-76
2022/06/02 00:37:35;;;;;;;5.88;2.60;;;15.00;99.90;;;;;;5185711;28;20918;-77
2022/06/02 00:40:10;;;;;;;2.58;2.38;;;14.90;99.90;;;;;;5186009;28;20053;-77
2022/06/02 00:43:01;;;;;;;8.27;2.90;;;14.90;99.90;;;;;;5171629;28;20060;-77
2022/06/02 00:45:34;;;;;;;4.82;2.55;;;15.00;99.90;;;;;;5189751;28;20053;-77
2022/06/02 00:48:28;;;;;;;4.22;2.13;;;14.90;99.90;;;;;;5170464;28;20049;-76
2022/06/02 00:51:06;;;;;;;5.75;3.90;;;14.90;99.90;;;;;;5185214;28;20046;-76
2022/06/02 00:53:41;;;;;;;3.28;2.40;;;14.90;99.90;;;;;;5174448;28;20037;-76
2022/06/02 00:59:15;;;;;;;3.45;2.60;;;14.80;99.90;;;;;;5170166;28;20049;-76
2022/06/02 01:01:48;;;;;;;3.50;3.10;;;14.80;99.90;;;;;;5191019;28;20050;-76
2022/06/02 01:04:21;;;;;;;5.00;3.00;;;14.70;99.90;;;;;;5183985;28;20060;-76
2022/06/02 01:07:08;;;;;;;5.25;3.00;;;14.70;99.90;;;;;;5184778;28;20054;-76
2022/06/02 01:10:06;;;;;;;4.45;2.95;;;14.70;99.90;;;;;;5187463;28;20053;-76
2022/06/02 01:12:41;;;;;;;4.30;3.00;;;14.60;99.90;;;;;;5190938;28;20056;-76
2022/06/02 01:15:26;;;;;;;2.97;2.63;;;14.60;99.90;;;;;;5187294;28;20037;-74
2022/06/02 01:18:23;;;;;;;3.70;3.05;;;14.70;99.90;;;;;;5188275;28;20065;-74
2022/06/02 01:20:59;;;;;;;4.78;3.33;;;14.60;99.90;;;;;;5167886;28;20041;-74
2022/06/02 01:23:53;;;;;;;3.25;2.35;;;14.50;99.90;;;;;;5189081;28;20057;-74
2022/06/02 01:26:37;;;;;;;9.68;3.58;;;14.50;99.90;;;;;;5190449;28;20053;-75
2022/06/02 01:29:21;;;;;;;2.97;2.65;;;14.50;99.90;;;;;;5190690;28;20061;-75
2022/06/02 01:32:12;;;;;;;4.60;2.53;;;14.40;99.90;;;;;;5188253;28;20080;-75
2022/06/02 01:34:59;;;;;;;3.35;2.88;;;14.40;99.90;;;;;;5187471;28;20037;-75
2022/06/02 01:38:16;;;;;;;5.35;2.80;;;14.40;99.90;;;;;;5172388;28;20056;-74
2022/06/02 01:41:12;;;;;;;5.68;2.28;;;14.40;99.90;;;;;;5189011;28;20512;-75
2022/06/02 01:43:58;;;;;;;2.92;2.40;;;14.30;99.90;;;;;;5188946;28;20046;-74
2022/06/02 01:47:06;;;;;;;3.28;2.35;;;14.30;99.90;;;;;;5187149;28;20050;-75
2022/06/02 01:50:04;;;;;;;2.80;2.33;;;14.30;99.90;;;;;;5262658;22;20055;-73
2022/06/02 01:52:55;;;;;;;4.03;2.65;;;14.30;99.90;;;;;;5256946;28;20487;-73
2022/06/02 01:55:48;;;;;;;4.00;2.67;;;14.30;99.90;;;;;;5262290;27;20051;-73
2022/06/02 01:59:05;;;;;;;2.67;2.40;;;14.30;99.90;;;;;;5277845;27;20043;-72
2022/06/02 02:01:41;;;;;;;3.95;2.55;;;14.30;99.90;;;;;;5277729;27;20745;-70
2022/06/02 02:04:31;;;;;;;5.55;2.55;;;14.30;99.90;;;;;;5278060;27;20043;-71
2022/06/02 02:07:29;;;;;;;4.03;2.67;;;14.30;99.90;;;;;;5277018;27;20047;-71
2022/06/02 02:10:35;;;;;;;3.17;2.47;;;14.30;99.90;;;;;;5275377;27;20471;-72
2022/06/02 02:13:32;;;;;;;3.58;2.85;;;14.30;99.90;;;;;;5274571;27;20371;-73
2022/06/02 02:16:13;;;;;;;4.13;2.60;;;14.20;99.90;;;;;;5273399;27;20130;-71
2022/06/02 02:19:12;;;;;;;3.88;2.92;;;14.20;99.90;;;;;;5274375;27;20039;-72
2022/06/02 02:22:02;;;;;;;3.40;2.70;;;14.30;99.90;;;;;;5257956;27;20043;-72
2022/06/02 02:24:49;;;;;;;3.95;2.88;;;14.30;99.90;;;;;;5274601;27;20047;-71
2022/06/02 02:28:02;;;;;;;6.63;2.58;;;14.30;99.90;;;;;;5256036;27;20055;-72
2022/06/02 02:30:44;;;;;;;5.15;2.47;;;14.20;99.90;;;;;;5252480;27;20050;-71
2022/06/02 02:33:25;;;;;;;4.70;2.60;;;14.10;99.90;;;;;;5274215;27;20050;-71
2022/06/02 02:36:21;;;;;;;2.40;2.20;;;14.20;99.90;;;;;;5264164;27;20086;-72
2022/06/02 02:39:07;;;;;;;3.03;2.50;;;14.20;99.90;;;;;;5278203;27;20047;-71
2022/06/02 02:41:53;;;;;;;3.85;2.75;;;14.20;99.90;;;;;;5261107;27;20050;-71
2022/06/02 02:44:41;;;;;;;3.22;2.72;;;14.20;99.90;;;;;;5277369;27;20047;-70
2022/06/02 02:47:35;;;;;;;4.78;2.92;;;14.10;99.90;;;;;;5257185;27;20044;-71
2022/06/02 02:50:20;;;;;;;6.45;2.47;;;14.00;99.90;;;;;;5276042;27;20047;-72
2022/06/02 02:52:52;;;;;;;;;;;14.00;99.90;;;;;;5278393;27;20096;-70
2022/06/02 02:55:35;;;;;;;4.45;2.90;;;14.00;99.90;;;;;;5273778;27;19931;-71
2022/06/02 02:58:15;;;;;;;4.03;3.10;;;14.00;99.90;;;;;;5249981;27;20051;-71
2022/06/02 03:01:00;;;;;;;4.28;3.05;;;14.00;99.90;;;;;;5268675;27;20051;-71
2022/06/02 03:03:59;;;;;;;3.42;2.92;;;14.00;99.90;;;;;;5264434;28;20051;-71
2022/06/02 03:06:35;;;;;;;4.28;3.20;;;14.00;99.90;;;;;;5268079;27;20164;-71
2022/06/02 03:09:17;;;;;;;3.25;2.80;;;14.00;99.90;;;;;;5280720;27;20044;-71
2022/06/02 03:11:59;;;;;;;3.72;3.03;;;14.00;99.90;;;;;;5264644;27;20039;-70
2022/06/02 03:14:39;;;;;;;4.35;3.35;;;14.00;99.90;;;;;;5254886;27;20066;-71
2022/06/02 03:17:28;;;;;;;5.05;3.60;;;14.00;99.90;;;;;;5261316;28;20039;-71
2022/06/02 03:20:21;;;;;;;6.32;3.30;;;14.10;99.90;;;;;;5270353;27;20379;-71
2022/06/02 03:23:21;;;;;;;4.85;3.22;;;14.00;99.90;;;;;;5277701;28;20044;-71
2022/06/02 03:26:06;;;;;;;4.55;3.53;;;14.10;99.90;;;;;;5279302;27;20043;-71
2022/06/02 03:28:57;;;;;;;3.40;3.03;;;14.00;99.90;;;;;;5269353;27;20461;-72
2022/06/02 03:31:44;;;;;;;3.47;3.17;;;14.10;99.90;;;;;;5241538;27;20047;-71
2022/06/02 03:34:48;;;;;;;6.13;3.28;;;14.00;99.90;;;;;;5279820;27;20051;-71
2022/06/02 03:37:38;;;;;;;3.75;3.00;;;14.00;99.90;;;;;;5272066;27;20511;-72
2022/06/02 03:40:30;;;;;;;5.28;3.05;;;14.00;99.90;;;;;;5267832;27;20047;-72
2022/06/02 03:43:26;;;;;;;5.22;3.00;;;14.10;99.90;;;;;;5258306;27;20118;-71
2022/06/02 03:46:22;;;;;;;5.43;3.40;;;14.00;99.90;;;;;;5210032;27;20066;-72
2022/06/02 03:49:36;;;;;;;3.92;2.60;;;14.00;99.90;;;;;;5259195;27;20511;-71
2022/06/02 03:52:46;;;;;;;4.03;3.55;;;13.90;99.90;;;;;;5260481;27;20044;-71
2022/06/02 03:55:32;;;;;;;4.25;3.20;;;13.90;99.90;;;;;;5274461;27;20133;-71
2022/06/02 03:58:33;;;;;;;3.60;3.00;;;13.90;99.90;;;;;;5272673;27;20051;-72
2022/06/02 04:01:11;;;;;;;3.22;2.92;;;13.90;99.90;;;;;;5202644;27;20418;-72
2022/06/02 04:04:00;;;;;;;3.03;2.72;;;13.90;99.90;;;;;;5274203;27;20763;-72
2022/06/02 04:07:28;;;;;;;4.20;3.55;;;13.90;99.90;;;;;;5275838;27;20519;-71
2022/06/02 04:10:07;;;;;;;4.80;2.80;;;13.90;99.90;;;;;;5263596;27;20050;-72
2022/06/02 04:16:26;;;;;;;3.22;2.92;;;14.00;99.90;;;;;;5272916;27;20031;-72
2022/06/02 04:22:53;;;;;;;6.35;3.85;;;14.20;99.90;;;;;;5267688;27;20043;-72
2022/06/02 04:25:29;;;;;;;3.95;3.28;;;14.30;99.90;;;;;;5274483;27;20044;-72
2022/06/02 04:28:23;;;;;;;4.22;3.58;;;14.40;99.90;;;;;;5277980;27;20051;-72
2022/06/02 04:31:13;;;;;;;4.03;2.88;;;14.50;99.90;;;;;;5271084;27;20039;-71
2022/06/02 04:33:56;;;;;;;8.00;3.20;;;14.50;99.90;;;;;;5269871;27;20428;-72
2022/06/02 04:37:07;;;;;;;3.30;3.00;;;14.60;99.90;;;;;;5265939;27;20051;-72
2022/06/02 04:39:55;;;;;;;3.47;3.05;;;14.60;99.90;;;;;;5249787;27;20047;-70
2022/06/02 04:42:48;;;;;;;4.22;3.00;;;14.60;99.90;;;;;;5243480;27;20043;-72
2022/06/02 04:45:35;;;;;;;3.80;2.60;;;14.60;99.90;;;;;;5247167;27;20394;-72
2022/06/02 04:48:28;;;;;;;5.20;2.88;;;14.70;99.90;;;;;;5261976;27;20043;-73
2022/06/02 04:51:31;;;;;;;3.65;2.92;;;14.70;99.90;;;;;;5236258;27;20106;-73
2022/06/02 04:54:25;;;;;;;3.17;2.42;;;14.80;99.90;;;;;;5261803;27;20411;-72
2022/06/02 04:57:05;;;;;;;4.15;2.80;;;14.80;99.90;;;;;;5234474;27;20069;-73
2022/06/02 05:00:21;;;;;;;3.10;2.58;;;14.80;99.90;;;;;;5271297;27;20040;-73
2022/06/02 05:03:12;;;;;;;3.65;2.90;;;14.80;99.90;;;;;;5229918;27;20055;-72
2022/06/02 05:06:24;;;;;;;8.00;2.95;;;14.80;99.90;;;;;;5239117;27;20070;-72
2022/06/02 05:09:02;;;;;;;4.03;2.55;;;14.90;99.90;;;;;;5250433;27;20051;-72
2022/06/02 05:11:44;;;;;;;4.57;3.22;;;15.00;99.90;;;;;;5256072;27;20054;-72
2022/06/02 05:14:21;;;;;;;4.85;2.72;;;15.10;99.90;;;;;;5247121;27;20052;-71
2022/06/02 05:17:21;;;;;;;5.63;3.15;;;15.10;99.90;;;;;;5265458;27;20062;-73
2022/06/02 05:20:20;;;;;;;3.95;2.95;;;15.10;99.90;;;;;;5266548;27;20541;-72
2022/06/02 05:23:07;;;;;;;4.53;2.65;;;15.20;99.90;;;;;;5261267;27;20058;-72
2022/06/02 05:25:50;;;;;;;3.80;3.05;;;15.40;99.90;;;;;;5263814;27;20161;-72
2022/06/02 05:28:48;;;;;;;5.80;3.05;;;15.40;99.90;;;;;;5267685;27;20047;-71
2022/06/02 05:31:40;;;;;;;5.60;3.70;;;15.40;99.90;;;;;;5267460;27;20046;-74
2022/06/02 05:34:23;;;;;;;5.25;3.20;;;15.40;99.90;;;;;;5160395;28;20116;-72
2022/06/02 05:37:04;;;;;;;5.00;2.67;;;15.50;99.90;;;;;;5159468;28;20080;-72
2022/06/02 05:39:52;;;;;;;3.22;2.88;;;15.60;99.90;;;;;;5167755;28;20057;-72
2022/06/02 05:43:12;;;;;;;3.75;3.03;;;15.70;99.90;;;;;;5196384;28;20044;-72
2022/06/02 05:46:26;;;;;;;6.30;3.10;;;15.70;99.90;;;;;;5137855;28;20050;-72
2022/06/02 05:49:10;;;;;;;3.80;2.53;;;15.80;99.90;;;;;;5119978;28;20065;-73
2022/06/02 05:51:58;;;;;;;;;;;15.90;99.90;;;;;;5197683;28;20052;-72
2022/06/02 05:54:41;;;;;;;5.72;2.90;;;15.80;99.90;;;;;;5180642;28;20369;-72
2022/06/02 05:57:34;;;;;;;4.63;3.20;;;15.90;99.90;;;;;;5182723;28;20045;-72
2022/06/02 06:00:29;;;;;;;6.20;3.63;;;15.80;99.90;;;;;;5171298;28;20052;-71
2022/06/02 06:03:18;;;;;;;5.05;3.35;;;15.90;99.90;;;;;;5184665;28;20049;-71
2022/06/02 06:06:00;;;;;;;3.88;3.50;;;15.90;99.90;;;;;;5181054;28;20056;-71
2022/06/02 06:08:39;;;;;;;8.05;3.50;;;16.00;99.90;;;;;;5181360;28;20060;-71
2022/06/02 06:11:26;;;;;;;3.53;3.20;;;16.00;99.90;;;;;;5181993;28;20465;-71
2022/06/02 06:14:15;;;;;;;4.88;3.60;;;16.10;99.90;;;;;;5183391;28;20045;-71
2022/06/02 06:16:54;;;;;;;4.15;3.35;;;16.30;99.90;;;;;;5182679;28;20037;-71
2022/06/02 06:19:41;;;;;;;5.00;3.60;;;16.40;99.90;;;;;;5195215;28;20516;-71
2022/06/02 06:22:25;;;;;;;6.50;3.80;;;16.40;99.90;;;;;;5183150;28;20053;-71
2022/06/02 06:25:34;;;;;;;4.03;3.63;;;16.50;99.90;;;;;;5174684;28;20042;-71
2022/06/02 06:28:17;;;;;;;3.92;3.58;;;16.60;99.90;;;;;;5185145;28;20049;-71
2022/06/02 06:30:58;;;;;;;5.60;3.28;;;16.60;99.90;;;;;;5185787;28;20056;-71
2022/06/02 06:33:49;;;;;;;6.90;4.20;;;16.70;99.90;;;;;;5177968;28;20037;-71
2022/06/02 06:36:46;;;;;;;7.88;4.22;;;16.90;99.90;;;;;;5176574;28;20060;-71
2022/06/02 06:39:43;;;;;;;8.13;4.65;;;17.10;99.90;;;;;;5181890;28;20057;-71
2022/06/02 06:42:21;;;;;;;5.68;4.80;;;17.20;99.90;;;;;;5179408;28;20065;-72
2022/06/02 06:45:11;;;;;;;5.60;4.28;;;17.10;99.90;;;;;;5173612;28;20048;-71
2022/06/02 06:47:46;;;;;;;7.80;4.40;;;17.00;99.90;;;;;;5185663;28;20049;-71
2022/06/02 06:50:26;;;;;;;5.40;4.20;;;17.00;99.90;;;;;;5181678;28;20517;-71
2022/06/02 06:53:17;;;;;;;5.75;4.10;;;17.20;99.90;;;;;;5179850;28;20037;-71
2022/06/02 06:56:20;;;;;;;4.30;3.80;;;17.40;99.90;;;;;;5171024;28;20516;-71
2022/06/02 06:59:20;;;;;;;6.32;4.53;;;17.60;99.90;;;;;;5170423;28;20068;-71
2022/06/02 07:02:22;;;;;;;5.78;4.10;;;17.70;99.90;;;;;;5175366;28;20528;-72
2022/06/02 07:05:29;;;;;;;7.70;4.28;;;17.90;99.40;;;;;;5160820;28;20048;-72
2022/06/02 07:08:43;;;;;;;4.50;3.80;;;18.00;96.00;;;;;;5135396;28;20509;-71
2022/06/02 07:14:53;;;;;;;4.55;3.90;;;18.00;96.20;;;;;;5162631;28;20045;-71
2022/06/02 07:17:48;;;;;;;5.72;4.40;;;18.10;95.70;;;;;;5181199;28;20045;-71
2022/06/02 07:21:16;;;;;;;9.15;4.65;;;18.20;94.00;;;;;;5181211;28;20049;-71
2022/06/02 07:23:55;;;;;;;5.22;3.75;;;18.20;92.50;;;;;;5181444;28;20064;-71
2022/06/02 07:26:55;;;;;;;7.38;4.30;;;18.30;94.00;;;;;;5183242;28;20061;-72
2022/06/02 07:30:01;;;;;;;5.05;3.78;;;18.40;93.70;;;;;;5183938;28;20049;-71
2022/06/02 07:33:03;;;;;;;6.05;4.28;;;18.70;94.20;;;;;;5171959;28;20056;-72
2022/06/02 07:35:57;;;;;;;5.13;4.40;;;18.70;91.80;;;;;;5183175;28;21101;-70
2022/06/02 07:38:45;;;;;;;7.05;3.53;;;18.90;92.10;;;;;;5182620;28;20045;-71
2022/06/02 07:41:53;;;;;;;5.68;4.22;;;19.00;93.20;;;;;;5184228;28;22511;-73
2022/06/02 07:44:43;;;;;;;6.63;3.97;;;19.20;91.50;;;;;;5182295;28;20041;-70
2022/06/02 07:47:30;;;;;;;7.60;3.65;;;19.20;91.30;;;;;;5175900;28;20064;-76
2022/06/02 07:50:24;;;;;;;7.43;4.28;;;19.10;89.80;;;;;;5169515;28;20068;-74
2022/06/02 07:53:22;;;;;;;6.20;3.53;;;19.10;88.90;;;;;;5176458;28;20054;-74
2022/06/02 07:56:01;;;;;;;5.05;3.45;;;19.30;90.60;;;;;;5166667;28;20292;-75
2022/06/02 07:59:18;;;;;;;4.78;3.20;;;19.50;90.40;;;;;;5185136;28;20607;-75
2022/06/02 08:02:19;;;;;;;6.07;4.03;;;19.50;86.30;;;;;;5185784;28;20048;-72
2022/06/02 08:05:08;;;;;;;4.50;3.55;;;19.50;84.30;;;;;;5183601;28;20438;-73
2022/06/02 08:07:54;;;;;;;5.45;3.70;;;19.60;82.60;;;;;;5185591;28;20141;-72
2022/06/02 08:10:52;;;;;;;7.32;3.92;;;19.70;82.60;;;;;;5171040;28;20072;-72
2022/06/02 08:13:46;;;;;;;4.80;3.58;;;19.70;80.60;;;;;;5184230;28;20072;-71
2022/06/02 08:16:47;;;;;;;4.07;3.17;;;19.70;81.80;;;;;;5187603;28;20068;-72
2022/06/02 08:19:48;;;;;;;7.00;3.80;;;19.80;81.20;;;;;;5189322;28;20405;-73
2022/06/02 08:22:36;;;;;;;4.78;3.70;;;19.90;81.10;;;;;;5183505;28;20752;-71
2022/06/02 08:25:14;;;;;;;5.00;4.07;;;19.90;80.90;;;;;;5205972;28;20042;-72
2022/06/02 08:27:52;;;;;;;5.40;4.10;;;19.70;81.70;;;;;;5188715;28;20049;-72
2022/06/02 08:30:44;;;;;;;7.10;4.05;;;20.00;85.40;;;;;;5188194;28;20052;-71
2022/06/02 08:33:35;;;;;;;4.68;3.67;;;20.20;86.60;;;;;;5200735;28;20465;-71
2022/06/02 08:36:07;;;;;;;8.20;3.85;;;20.50;87.00;;;;;;5185152;28;20045;-72
2022/06/02 08:38:49;;;;;;;4.30;3.72;;;20.60;83.20;;;;;;5188840;28;20045;-71
2022/06/02 08:41:49;;;;;;;6.43;3.95;;;20.70;82.70;;;;;;5179808;28;20682;-72
2022/06/02 08:44:39;;;;;;;7.22;3.88;;;20.30;82.50;;;;;;5186306;28;20052;-71
2022/06/02 08:47:46;;;;;;;7.47;4.00;;;20.30;83.30;;;;;;5202278;28;20377;-72
2022/06/02 08:50:35;;;;;;;6.93;4.00;;;20.10;83.80;;;;;;5180371;28;20409;-72
2022/06/02 08:53:45;;;;;;;12.25;4.13;;;20.10;84.50;;;;;;5182707;28;20041;-71
2022/06/02 08:56:37;;;;;;;6.13;3.38;;;20.60;82.00;;;;;;5180428;28;20049;-71
2022/06/02 08:59:38;;;;;;;8.35;3.45;;;20.90;82.00;;;;;;5181951;28;20076;-73
2022/06/02 09:02:21;;;;;;;7.95;3.92;;;21.10;81.90;;;;;;5180623;28;20297;-72
2022/06/02 09:04:57;;;;;;;9.13;3.55;;;21.00;81.60;;;;;;5185110;28;20516;-72
2022/06/02 09:07:44;;;;;;;4.93;3.80;;;20.70;80.20;;;;;;5186488;28;20061;-73
2022/06/02 09:11:02;;;;;;;3.85;3.40;;;20.50;81.20;;;;;;5184644;28;20045;-72
2022/06/02 09:14:00;;;;;;;4.30;2.95;;;20.50;80.60;;;;;;5151904;28;20630;-72
2022/06/02 09:16:35;;;;;;;3.00;2.80;;;20.50;81.00;;;;;;5181408;28;20060;-73
2022/06/02 09:19:14;;;;;;;4.35;3.00;;;20.60;81.00;;;;;;5186331;28;20068;-74
2022/06/02 09:22:28;;;;;;;6.95;2.83;;;20.70;79.20;;;;;;5189476;28;20895;-74
2022/06/02 09:25:41;;;;;;;5.15;2.90;;;20.90;76.70;;;;;;5101934;28;20532;-75
2022/06/02 09:28:33;;;;;;;5.22;3.00;;;20.90;75.90;;;;;;5190451;28;20049;-74
2022/06/02 09:31:39;;;;;;;6.38;2.80;;;20.90;74.10;;;;;;5155256;28;20459;-74
2022/06/02 09:34:59;;;;;;;4.15;2.75;;;21.00;74.70;;;;;;5185276;28;20057;-74
2022/06/02 09:37:52;;;;;;;3.75;2.55;;;21.30;72.80;;;;;;5181613;28;20556;-74
2022/06/02 09:40:49;;;;;;;4.72;3.30;;;21.50;71.00;;;;;;5184756;28;20057;-72
2022/06/02 09:43:30;;;;;;;3.88;2.70;;;21.50;68.90;;;;;;5177134;28;20069;-73
2022/06/02 09:46:45;;;;;;;5.30;2.97;;;21.90;70.60;;;;;;5187456;28;20058;-72
2022/06/02 09:49:51;;;;;;;7.15;3.40;;;22.00;68.70;;;;;;5158113;28;20053;-71
2022/06/02 09:52:39;;;;;;;5.00;3.20;;;22.00;69.20;;;;;;5198846;28;20757;-72
2022/06/02 09:58:47;;;;;;;5.68;2.95;;;22.00;69.20;;;;;;5194667;28;20041;-72
2022/06/02 10:01:24;;;;;;;6.22;3.38;;;22.00;70.20;;;;;;5216244;28;20637;-71
2022/06/02 10:03:56;;;;;;;4.22;3.55;;;21.90;70.20;;;;;;5220187;28;20060;-72
2022/06/02 10:06:47;;;;;;;7.13;3.22;;;21.90;71.30;;;;;;5220321;28;20063;-72
2022/06/02 10:09:30;;;;;;;6.78;3.45;;;21.90;70.20;;;;;;5221310;28;20504;-70
2022/06/02 10:15:52;;;;;;;6.82;4.15;;;22.10;70.80;;;;;;5224573;28;20041;-71
2022/06/02 10:18:51;;;;;;;5.90;4.47;;;22.40;69.50;;;;;;5178367;28;20055;-71
2022/06/02 10:21:44;;;;;;;5.38;3.60;;;22.30;69.20;;;;;;5223362;28;20504;-72
2022/06/02 10:24:44;;;;;;;6.43;4.40;;;22.50;70.00;;;;;;5223739;28;20052;-71
2022/06/02 10:27:58;;;;;;;5.80;3.97;;;22.90;67.10;;;;;;5240495;28;20543;-71
2022/06/02 10:30:39;;;;;;;4.77;3.67;;;22.90;64.80;;;;;;5221004;28;20060;-71
2022/06/02 10:33:36;;;;;;;6.88;4.93;;;23.00;66.70;;;;;;5218911;28;20341;-72
2022/06/02 10:36:23;;;;;;;3.95;3.55;;;23.20;67.50;;;;;;5225936;28;20040;-71
2022/06/02 10:39:08;;;;;;;5.30;4.05;;;23.40;67.70;;;;;;5222667;28;20039;-71
2022/06/02 10:41:51;;;;;;;6.70;4.78;;;23.60;66.40;;;;;;5223767;28;20450;-70
2022/06/02 10:44:59;;;;;;;4.73;3.97;;;23.70;66.90;;;;;;5219730;28;20056;-74
2022/06/02 10:48:10;;;;;;;5.60;3.53;;;23.60;64.70;;;;;;5202501;28;20067;-71
2022/06/02 10:51:09;;;;;;;4.90;3.40;;;23.50;64.20;;;;;;5185899;28;20051;-73
2022/06/02 10:54:20;;;;;;;4.97;3.10;;;23.40;64.30;;;;;;5219347;28;20051;-71
2022/06/02 10:56:59;;;;;;;6.20;3.30;;;23.30;64.60;;;;;;5209284;28;20500;-71
2022/06/02 11:00:02;;;;;;;6.65;4.78;;;23.10;66.20;;;;;;5211895;28;20044;-71
2022/06/02 11:03:02;;;;;;;11.35;5.55;;;22.90;69.10;;;;;;5212252;28;20051;-71
2022/06/02 11:05:57;;;;;;;8.57;6.18;;;22.70;69.10;;;;;;5211893;28;20055;-68
2022/06/02 11:09:21;;;;;;;8.25;5.80;;;22.30;69.90;;;;;;5215383;28;20044;-69
2022/06/02 11:12:22;;;;;;;6.57;4.88;;;22.20;71.40;;;;;;5186783;28;20044;-68
2022/06/02 11:15:28;;;;;;;6.43;4.78;;;22.30;72.30;;;;;;5179610;28;20056;-68
2022/06/02 11:18:28;;;;;;;6.65;4.65;;;22.50;70.30;;;;;;5182404;28;20869;-69
2022/06/02 11:21:32;;;;;;;7.32;4.43;;;23.10;72.40;;;;;;5179605;28;20075;-68
2022/06/02 11:24:33;;;;;;;4.00;3.22;;;23.90;67.20;;;;;;5200321;28;20622;-69
2022/06/02 11:27:24;;;;;;;5.13;4.05;;;24.30;68.30;;;;;;5185352;28;20059;-69
2022/06/02 11:30:15;;;;;;;10.52;3.55;;;24.80;67.90;;;;;;5221127;28;20055;-69
2022/06/02 11:33:16;;;;;;;5.90;4.00;;;25.10;66.30;;;;;;5215256;28;20053;-69
2022/06/02 11:36:06;;;;;;;4.65;3.15;;;25.40;63.20;;;;;;5221549;28;20399;-70
2022/06/02 11:39:33;;;;;;;4.65;3.53;;;25.30;64.40;;;;;;5220685;28;20040;-69
2022/06/02 11:42:34;;;;;;;5.13;3.50;;;25.30;63.50;;;;;;5138337;28;20042;-68
2022/06/02 11:45:58;;;;;;;4.30;3.35;;;24.70;64.10;;;;;;5219568;28;20492;-69
2022/06/02 11:48:50;;;;;;;5.22;3.92;;;24.40;65.30;;;;;;5221525;28;20044;-69
2022/06/02 11:51:54;;;;;;;5.60;4.05;;;24.20;65.40;;;;;;5227153;28;20052;-69
2022/06/02 11:54:56;;;;;;;6.10;3.95;;;24.10;66.30;;;;;;5222338;28;20052;-70
2022/06/02 11:57:59;;;;;;;4.18;3.55;;;23.80;65.00;;;;;;5224368;28;20044;-70
2022/06/02 12:00:41;;;;;;;4.70;3.00;;;23.70;65.40;;;;;;5212317;28;20056;-70
2022/06/02 12:03:42;;;;;;;5.07;3.28;;;23.40;66.70;;;;;;5222631;28;20049;-69
2022/06/02 12:06:57;;;;;;;3.80;3.00;;;23.20;67.70;;;;;;5223370;28;20045;-70
2022/06/02 12:09:48;;;;;;;6.90;3.70;;;23.20;68.30;;;;;;5219006;28;20064;-69
2022/06/02 12:12:32;;;;;;;3.65;2.90;;;23.40;68.60;;;;;;5222885;28;20049;-70
2022/06/02 12:15:26;;;;;;;8.90;3.25;;;24.20;68.00;;;;;;5221287;28;20044;-68
2022/06/02 12:18:26;;;;;;;3.15;2.75;;;25.00;67.20;;;;;;5214654;28;20595;-70
2022/06/02 12:21:29;;;;;;;2.97;2.72;;;25.30;64.10;;;;;;5237665;28;20049;-70
2022/06/02 12:24:09;;;;;;;3.13;2.80;;;25.20;64.20;;;;;;5221922;28;20354;-69
2022/06/02 12:26:56;;;;;;;3.25;2.95;;;25.00;64.30;;;;;;5220431;28;20047;-69
2022/06/02 12:29:59;;;;;;;5.63;3.03;;;24.60;61.70;;;;;;5223519;28;20277;-70
2022/06/02 12:33:15;;;;;;;5.75;2.95;;;24.20;63.00;;;;;;5220658;28;20061;-70
2022/06/02 12:35:48;;;;;;;7.27;3.30;;;24.00;62.50;;;;;;5219376;28;20047;-68
2022/06/02 12:38:46;;;;;;;4.80;3.00;;;23.70;64.90;;;;;;5219450;28;20290;-69
2022/06/02 12:42:15;;;;;;;8.07;3.33;;;23.30;66.60;;;;;;5221856;28;20061;-70
2022/06/02 12:45:12;;;;;;;3.22;2.78;;;23.00;66.20;;;;;;5179719;28;20060;-70
2022/06/02 12:47:44;;;;;;;5.05;3.33;;;22.70;67.90;;;;;;5182411;28;20056;-70
2022/06/02 12:50:50;;;;;;;6.00;3.58;;;22.40;67.90;;;;;;5203055;28;20412;-70
2022/06/02 12:53:30;;;;;;;5.95;3.50;;;22.20;70.70;;;;;;5220324;28;20567;-70
2022/06/02 12:56:25;;;;;;;6.47;3.28;;;22.10;70.40;;;;;;5221990;28;20613;-70
2022/06/02 12:59:16;;;;;;;5.32;3.25;;;21.90;72.00;;;;;;5218758;28;20041;-70
2022/06/02 13:02:10;;;;;;;7.65;3.20;;;21.80;74.00;;;;;;5220667;28;20067;-70
2022/06/02 13:05:22;;;;;;;4.80;3.50;;;21.80;76.50;;;;;;5217887;28;20472;-70
2022/06/02 13:08:28;;;;;;;5.00;3.63;;;21.70;78.60;;;;;;5220364;28;21441;-68
2022/06/02 13:11:19;;;;;;;7.47;3.53;;;21.70;78.50;;;;;;5222479;28;20072;-69
2022/06/02 13:14:10;;;;;;;7.43;3.90;;;21.80;78.70;;;;;;5217848;28;20048;-70
2022/06/02 13:17:25;;;;;;;5.25;3.42;;;21.90;77.40;;;;;;5222022;28;20051;-68
2022/06/02 13:20:18;;;;;;;5.85;3.17;;;22.10;76.60;;;;;;5168080;28;20051;-70
2022/06/02 13:23:00;;;;;;;4.90;3.10;;;22.60;77.20;;;;;;5216592;28;20582;-70
2022/06/02 13:26:02;;;;;;;6.20;3.25;;;23.20;70.90;;;;;;5215466;28;20072;-70
2022/06/02 13:29:03;;;;;;;5.78;3.00;;;23.60;67.40;;;;;;5216984;28;20041;-69
2022/06/02 13:31:52;;;;;;;3.38;2.90;;;24.10;68.10;;;;;;5219134;28;20810;-69
2022/06/02 13:34:50;;;;;;;6.57;3.00;;;24.70;64.90;;;;;;5217149;28;20051;-71
2022/06/02 13:38:05;;;;;;;5.60;3.20;;;25.10;65.60;;;;;;5215391;28;20049;-69
2022/06/02 13:40:55;;;;;;;;;;;25.60;63.90;;;;;;5220332;28;20040;-70
2022/06/02 13:43:34;;;;;;;2.90;2.60;;;25.50;61.10;;;;;;5215311;28;20280;-70
2022/06/02 13:46:30;;;;;;;5.60;3.03;;;25.60;63.90;;;;;;5220010;28;20397;-69
2022/06/02 13:49:18;;;;;;;4.18;2.80;;;25.50;61.40;;;;;;5214860;28;20526;-71
2022/06/02 13:52:35;;;;;;;2.83;2.63;;;25.90;61.30;;;;;;5237822;22;20051;-74
2022/06/02 13:58:24;;;;;;;3.92;2.58;;;26.20;59.80;;;;;;5221869;28;20040;-73
2022/06/02 14:01:07;;;;;;;5.13;2.50;;;26.40;59.90;;;;;;5245621;28;21592;-73
2022/06/02 14:04:10;;;;;;;4.35;2.85;;;26.20;59.10;;;;;;5228995;28;20048;-72
2022/06/02 14:06:57;;;;;;;3.10;2.80;;;26.00;59.00;;;;;;5217072;28;20063;-74
2022/06/02 14:09:55;;;;;;;3.58;2.60;;;26.30;59.30;;;;;;5159236;22;20051;-75
2022/06/02 14:12:45;;;;;;;3.63;2.60;;;26.10;60.50;;;;;;5142085;28;20054;-74
2022/06/02 14:15:43;;;;;;;5.03;2.50;;;26.30;58.50;;;;;;5120406;28;20410;-76
2022/06/02 14:18:28;;;;;;;7.80;2.65;;;26.40;57.40;;;;;;5132838;28;20502;-76
2022/06/02 14:21:39;;;;;;;4.03;2.45;;;26.30;59.10;;;;;;5170520;28;20401;-76
2022/06/02 14:24:29;;;;;;;3.15;2.65;;;26.20;57.90;;;;;;5143158;28;20066;-77
2022/06/02 14:27:20;;;;;;;7.47;3.03;;;26.10;58.50;;;;;;5135270;28;20487;-78
2022/06/02 14:30:13;;;;;;;3.78;2.85;;;25.80;59.40;;;;;;5137875;28;20043;-74
2022/06/02 14:33:02;;;;;;;4.10;3.55;;;25.60;61.30;;;;;;5189727;28;20352;-74
2022/06/02 14:35:52;;;;;;;4.85;3.30;;;25.90;60.90;;;;;;5137275;28;20042;-76
2022/06/02 14:38:39;;;;;;;3.30;3.00;;;26.10;60.40;;;;;;5171895;28;20034;-76
2022/06/02 14:41:26;;;;;;;7.65;3.05;;;26.40;60.10;;;;;;5139963;28;20039;-75
2022/06/02 14:44:01;;;;;;;4.80;2.92;;;26.80;59.10;;;;;;5134131;28;20108;-76
2022/06/02 14:46:46;;;;;;;5.60;3.10;;;27.20;57.80;;;;;;5143086;28;20498;-77
2022/06/02 14:49:28;;;;;;;5.07;2.72;;;27.60;56.70;;;;;;5135940;28;20431;-77
2022/06/02 14:52:31;;;;;;;3.58;2.97;;;27.70;57.40;;;;;;5137046;28;20039;-76
2022/06/02 14:55:22;;;;;;;7.05;2.90;;;28.00;55.60;;;;;;5136024;28;20071;-77
2022/06/02 14:58:22;;;;;;;3.80;2.50;;;28.30;53.40;;;;;;5139711;28;20053;-76
2022/06/02 15:01:24;;;;;;;3.45;2.67;;;27.90;55.20;;;;;;5132670;28;20050;-77
2022/06/02 15:04:09;;;;;;;3.60;2.75;;;28.20;54.50;;;;;;5131063;28;20049;-76
2022/06/02 15:07:07;;;;;;;4.50;3.10;;;28.10;53.90;;;;;;5136219;28;20046;-74
2022/06/02 15:09:51;;;;;;;3.08;2.40;;;27.80;54.40;;;;;;5135545;28;20051;-75
2022/06/02 15:12:43;;;;;;;5.75;2.50;;;27.40;55.10;;;;;;5130750;28;20814;-75
2022/06/02 15:15:21;;;;;;;4.80;2.70;;;26.80;55.40;;;;;;5139785;28;20035;-77
2022/06/02 15:18:58;;;;;;;3.22;2.83;;;26.50;56.50;;;;;;5131053;28;20073;-74
2022/06/02 15:22:11;;;;;;;3.30;2.60;;;26.00;57.90;;;;;;5078594;28;20056;-76
2022/06/02 15:25:02;;;;;;;2.92;2.63;;;25.50;59.80;;;;;;5139484;28;20046;-77